createdAt,value
2023-02-26T00:08:20.564Z,6.9
2023-02-26T00:22:22.732Z,6.9
2023-02-26T00:30:56.792Z,6.8
2023-02-26T00:37:46.249Z,6.9
2023-02-26T00:52:37.941Z,8.5
2023-02-26T00:57:15.718Z,8.8
2023-02-26T01:11:15.800Z,7.9
2023-02-26T01:17:54.086Z,7.1
2023-02-26T01:30:14.703Z,6.5
2023-02-26T01:40:39.673Z,6.0
2023-02-26T01:48:12.761Z,5.8
2023-02-26T01:55:16.355Z,5.6
2023-02-26T02:08:47.003Z,5.3
2023-02-26T02:19:16.352Z,5.2
2023-02-26T02:22:57.713Z,5.2
2023-02-26T02:35:18.094Z,5.1
2023-02-26T02:43:07.504Z,5.1
2023-02-26T02:47:44.635Z,5.2
2023-02-26T02:53:51.533Z,5.1
2023-02-26T02:58:26.793Z,5.1
2023-02-26T03:09:33.046Z,4.9
2023-02-26T03:20:27.987Z,4.9
2023-02-26T03:30:24.444Z,4.9
2023-02-26T03:44:24.493Z,4.8
2023-02-26T03:58:24.448Z,4.6
2023-02-26T04:02:54.449Z,4.6
2023-02-26T04:11:27.615Z,4.6
2023-02-26T04:27:16.292Z,4.3
2023-02-26T04:32:38.796Z,4.4
2023-02-26T04:48:29.510Z,4.3
2023-02-26T04:52:37.885Z,4.3
2023-02-26T04:59:42.181Z,4.3
2023-02-26T05:10:32.212Z,4.2
2023-02-26T05:17:25.321Z,4.1
2023-02-26T05:36:55.417Z,3.8
2023-02-26T05:44:58.992Z,3.8
2023-02-26T05:58:58.976Z,3.4
2023-02-26T06:12:58.921Z,3.4
2023-02-26T06:26:59.219Z,3.6
2023-02-26T06:39:59.965Z,3.7
2023-02-26T06:46:24.450Z,3.9
2023-02-26T07:00:43.981Z,4.0
2023-02-26T07:08:55.092Z,4.2
2023-02-26T07:23:55.075Z,4.5
2023-02-26T07:35:44.794Z,4.9
2023-02-26T07:40:02.970Z,4.9
2023-02-26T07:53:02.849Z,5.2
2023-02-26T07:57:49.770Z,5.4
2023-02-26T08:05:30.175Z,5.5
2023-02-26T08:23:26.047Z,5.7
2023-02-26T08:38:25.426Z,5.9
2023-02-26T08:45:51.373Z,6.1
2023-02-26T08:59:46.723Z,6.4
2023-02-26T09:14:46.370Z,6.5
2023-02-26T09:20:22.112Z,6.5
2023-02-26T09:23:45.052Z,6.6
2023-02-26T09:31:57.294Z,6.5
2023-02-26T16:15:45.265Z,6.3
2023-02-26T16:30:45.037Z,5.8
2023-02-26T16:45:45.046Z,5.5
2023-02-26T17:01:45.128Z,5.2
2023-02-26T17:16:45.336Z,5.1
2023-02-26T17:30:45.245Z,4.7
2023-02-26T17:44:45.219Z,4.7
2023-02-26T17:58:45.211Z,5.0
2023-02-26T18:12:45.247Z,4.6
2023-02-26T18:26:45.201Z,4.3
2023-02-26T18:43:07.668Z,3.9
2023-02-26T18:59:33.662Z,3.7
2023-02-26T19:07:46.289Z,3.9
2023-02-26T19:21:46.227Z,3.8
2023-02-26T19:25:05.774Z,3.8
2023-02-26T19:34:12.615Z,3.7
2023-02-26T19:43:30.237Z,3.5
2023-02-26T19:56:41.963Z,4.0
2023-02-26T20:03:58.560Z,4.3
2023-02-26T20:17:58.621Z,4.2
2023-02-26T20:29:12.197Z,4.6
2023-02-26T20:42:53.895Z,4.7
2023-02-26T20:47:06.260Z,4.9
2023-02-26T20:52:48.201Z,4.8
2023-02-26T21:01:21.125Z,4.7
2023-02-26T21:11:37.068Z,4.6
2023-02-26T21:15:17.721Z,4.7
2023-02-26T21:20:20.463Z,4.6
2023-02-26T21:36:37.713Z,4.5
2023-02-26T21:39:36.314Z,4.4
2023-02-26T21:52:19.407Z,3.9
2023-02-26T21:58:13.511Z,3.7
2023-02-26T22:08:13.110Z,3.4
2023-02-26T22:12:59.653Z,3.5
2023-02-26T22:28:25.877Z,3.8
2023-02-26T22:37:55.383Z,4.3
2023-02-26T22:49:57.488Z,4.3
2023-02-26T23:05:49.731Z,4.2
2023-02-26T23:18:50.422Z,3.7
2023-02-26T23:26:03.964Z,3.6
2023-02-26T23:36:53.993Z,3.6
2023-02-26T23:44:30.555Z,4.1
2023-02-26T23:50:08.338Z,4.2
